Time;durP1;ratioP1;P1;durP2;ratioP2;P2;SDS_P1;SDS_P2;PMS_P1;PMS_P2;Temp;Humidity;BMP_temperature;BMP_pressure;BME280_temperature;BME280_humidity;BME280_pressure;Samples;Min_cycle;Max_cycle;Signal;HPM_P1;HPM_P2
2022/09/04 00:02:37;;;;;;;9.40;1.52;;;;;;;29.90;55.51;100744.84;5079573;28;66444;-36
2022/09/04 00:05:38;;;;;;;1.70;1.60;;;;;;;29.84;55.39;100739.25;5061535;28;69919;-36
2022/09/04 00:08:42;;;;;;;2.20;1.60;;;;;;;29.90;55.78;100734.03;5077615;27;66981;-36
2022/09/04 00:11:37;;;;;;;1.77;1.67;;;;;;;29.59;56.64;100693.19;5073886;28;70896;-36
2022/09/04 00:14:36;;;;;;;2.85;1.55;;;;;;;29.97;56.37;100751.84;5077734;27;66861;-37
2022/09/04 00:17:49;;;;;;;1.65;1.40;;;;;;;29.85;57.05;100734.66;5072860;28;71134;-37
2022/09/04 00:20:59;;;;;;;2.35;1.70;;;;;;;30.02;56.96;100748.50;5076658;28;67048;-37
2022/09/04 00:23:47;;;;;;;1.80;1.55;;;;;;;30.06;57.59;100747.88;5078901;27;71248;-36
2022/09/04 00:26:44;;;;;;;2.72;2.53;;;;;;;29.96;59.17;100735.84;5070787;28;66730;-37
2022/09/04 00:29:48;;;;;;;5.78;3.72;;;;;;;29.65;59.70;100672.59;5075342;28;69581;-37
2022/09/04 00:32:53;;;;;;;4.38;3.78;;;;;;;30.04;60.14;100730.19;5075983;28;66483;-37
2022/09/04 00:35:40;;;;;;;7.55;4.88;;;;;;;30.16;61.12;100741.97;5066101;28;70562;-37
2022/09/04 00:38:26;;;;;;;8.00;4.85;;;;;;;30.20;61.49;100740.50;5075352;28;65970;-35
2022/09/04 00:41:16;;;;;;;5.85;4.95;;;;;;;29.79;62.08;100670.66;5078156;28;70631;-36
2022/09/04 00:44:24;;;;;;;12.45;5.63;;;;;;;30.20;62.27;100737.78;5075406;28;66723;-37
2022/09/04 00:47:06;;;;;;;10.25;5.82;;;;;;;30.26;62.26;100745.03;5078826;28;70145;-36
2022/09/04 00:49:59;;;;;;;11.60;6.47;;;;;;;30.17;62.78;100730.09;5073955;27;67004;-37
2022/09/04 00:52:32;;;;;;;18.05;6.60;;;;;;;30.32;63.17;100747.94;5075786;27;70968;-34
2022/09/04 00:55:16;;;;;;;12.43;7.50;;;;;;;30.33;63.74;100750.41;5074037;28;67081;-35
2022/09/04 00:58:45;;;;;;;12.65;7.32;;;;;;;30.27;64.33;100757.50;5072771;28;71309;-35
2022/09/04 01:01:23;;;;;;;29.25;8.35;;;;;;;30.44;64.66;100748.88;5034460;28;66917;-36
2022/09/04 01:04:37;;;;;;;36.50;8.57;;;;;;;30.32;65.90;100747.94;5030151;28;70972;-35
2022/09/04 01:07:44;;;;;;;25.42;7.82;;;;;;;30.40;66.77;100769.31;5069276;28;66699;-35
2022/09/04 01:10:40;;;;;;;39.85;9.13;;;;;;;30.11;67.00;100716.59;5034883;28;70208;-35
2022/09/04 01:13:21;;;;;;;30.77;9.77;;;;;;;30.43;67.55;100760.75;5076367;28;66838;-37
2022/09/04 01:16:15;;;;;;;27.92;8.63;;;;;;;30.11;67.63;100714.72;5077034;28;70781;-35
2022/09/04 01:19:16;;;;;;;40.15;8.30;;;;;;;30.55;68.33;100774.38;5071204;27;67021;-37
2022/09/04 01:22:20;;;;;;;25.80;8.77;;;;;;;30.62;68.03;100776.00;5076063;28;71221;-36
2022/09/04 01:25:26;;;;;;;21.58;7.07;;;;;;;30.60;68.22;100778.09;5071241;28;66464;-36
2022/09/04 01:28:33;;;;;;;17.67;7.10;;;;;;;30.20;68.86;100716.13;5076056;28;70166;-38
2022/09/04 01:31:35;;;;;;;15.93;7.38;;;;;;;30.72;68.95;100776.31;5071460;28;67251;-37
2022/09/04 01:34:40;;;;;;;20.55;7.53;;;;;;;30.68;69.01;100788.66;5075688;27;70678;-36
2022/09/04 01:37:34;;;;;;;10.20;6.13;;;;;;;30.70;68.92;100789.25;5075459;27;65745;-37
2022/09/04 01:40:25;;;;;;;20.73;6.70;;;;;;;30.79;69.60;100799.81;5074791;28;70997;-36
2022/09/04 01:43:20;;;;;;;12.30;5.95;;;;;;;30.58;69.85;100769.34;5074680;28;67152;-36
2022/09/04 01:46:21;;;;;;;11.63;6.18;;;;;;;30.82;69.47;100807.53;5076045;28;71501;-37
2022/09/04 01:49:20;;;;;;;8.68;5.75;;;;;;;30.86;69.90;100814.13;5076928;28;66328;-38
2022/09/04 01:51:52;;;;;;;12.07;5.50;;;;;;;30.89;69.78;100808.28;5076335;28;70986;-37
2022/09/04 01:54:47;;;;;;;21.52;5.82;;;;;;;30.47;69.88;100745.72;5074544;28;67015;-36
2022/09/04 01:57:34;;;;;;;12.38;4.80;;;;;;;30.92;69.75;100807.84;5078651;28;70996;-37
2022/09/04 02:00:10;;;;;;;11.43;5.55;;;;;;;31.00;69.87;100806.72;5071565;28;66264;-36
2022/09/04 02:03:09;;;;;;;29.17;7.32;;;;;;;30.99;70.45;100805.91;5092141;27;70028;-36
2022/09/04 02:05:53;;;;;;;34.38;7.45;;;;;;;30.90;70.30;100778.28;5070937;28;66578;-37
2022/09/04 02:09:09;;;;;;;24.48;6.15;;;;;;;31.02;70.85;100810.88;5075148;28;70768;-36
2022/09/04 02:11:50;;;;;;;20.27;5.50;;;;;;;30.98;70.56;100796.13;5075791;27;65265;-36
2022/09/04 02:14:58;;;;;;;18.05;5.07;;;;;;;31.05;71.09;100818.53;5073963;28;70055;-36
2022/09/04 02:18:11;;;;;;;35.75;8.05;;;;;;;31.14;70.81;100817.19;5065551;27;66607;-38
2022/09/04 02:20:58;;;;;;;63.40;14.93;;;;;;;30.81;69.46;100751.69;5071981;28;70236;-36
2022/09/04 02:24:12;;;;;;;54.83;14.00;;;;;;;31.21;69.26;100810.91;5076587;27;66423;-34
2022/09/04 02:27:05;;;;;;;112.25;26.85;;;;;;;31.41;70.84;100825.09;5073937;28;70200;-36
2022/09/04 02:29:47;;;;;;;98.65;26.10;;;;;;;31.61;70.76;100808.59;5065685;28;66834;-37
2022/09/04 02:32:29;;;;;;;85.50;26.08;;;;;;;31.69;70.26;100807.47;5078472;28;70251;-36
2022/09/04 02:35:32;;;;;;;81.03;22.75;;;;;;;31.66;69.81;100797.91;5081683;27;66873;-36
2022/09/04 02:38:22;;;;;;;59.17;15.50;;;;;;;31.76;69.93;100805.47;5075081;28;70869;-35
2022/09/04 02:41:00;;;;;;;36.53;11.38;;;;;;;31.42;69.92;100742.72;5077304;28;67099;-37
2022/09/04 02:43:41;;;;;;;67.75;18.42;;;;;;;31.48;70.51;100746.41;5092745;27;70208;-35
2022/09/04 02:46:23;;;;;;;53.28;17.98;;;;;;;31.92;71.01;100807.59;5077911;27;66873;-36
2022/09/04 02:49:14;;;;;;;39.67;15.33;;;;;;;31.95;70.67;100796.28;5079150;28;69888;-36
2022/09/04 02:52:18;;;;;;;40.97;13.60;;;;;;;31.29;69.91;100672.41;5076565;28;67556;-35
2022/09/04 02:54:53;;;;;;;29.58;10.63;;;;;;;32.10;69.46;100795.06;5074299;28;70845;-37
2022/09/04 02:57:32;;;;;;;12.10;7.07;;;;;;;32.05;69.26;100802.00;5080511;27;67290;-35
2022/09/04 03:00:16;;;;;;;80.28;11.77;;;;;;;31.68;68.96;100735.28;5080641;28;71019;-35
2022/09/04 03:03:10;;;;;;;97.43;10.73;;;;;;;31.95;69.80;100795.47;5075525;28;67258;-36
2022/09/04 03:06:01;;;;;;;59.90;8.65;;;;;;;31.92;69.16;100791.31;5073767;28;70963;-35
2022/09/04 03:09:01;;;;;;;42.80;6.95;;;;;;;31.97;69.17;100799.59;5082932;27;65663;-34
2022/09/04 03:11:43;;;;;;;14.60;4.25;;;;;;;31.51;67.90;100719.69;5085072;27;69725;-35
2022/09/04 03:14:34;;;;;;;34.72;5.38;;;;;;;31.41;69.93;100713.13;5076572;28;66264;-35
2022/09/04 03:17:17;;;;;;;23.10;4.40;;;;;;;31.96;68.84;100786.28;5074325;28;70488;-34
2022/09/04 03:20:15;;;;;;;22.73;3.80;;;;;;;31.90;68.56;100777.16;5073155;27;66816;-37
2022/09/04 03:23:01;;;;;;;11.18;4.10;;;;;;;31.98;68.10;100763.31;5075066;28;70288;-36
2022/09/04 03:25:41;;;;;;;7.43;2.90;;;;;;;31.97;68.17;100771.66;5079710;27;66983;-35
2022/09/04 03:28:29;;;;;;;7.60;2.88;;;;;;;31.59;68.55;100722.06;5076010;28;71070;-36
2022/09/04 03:31:23;;;;;;;11.88;2.63;;;;;;;31.79;68.46;100761.66;5071069;28;66414;-35
2022/09/04 03:34:24;;;;;;;5.13;2.78;;;;;;;31.49;68.10;100704.69;5083169;27;70087;-36
2022/09/04 03:37:11;;;;;;;6.30;2.55;;;;;;;31.89;67.98;100764.63;5067229;28;67122;-35
2022/09/04 03:39:43;;;;;;;6.00;2.95;;;;;;;31.97;67.84;100753.50;5075050;28;71492;-36
2022/09/04 03:42:30;;;;;;;11.60;2.60;;;;;;;31.60;67.93;100709.34;5076153;28;66474;-35
2022/09/04 03:45:22;;;;;;;8.00;2.55;;;;;;;32.01;67.38;100749.28;5078759;28;70809;-37
2022/09/04 03:48:25;;;;;;;9.75;2.53;;;;;;;31.89;67.91;100753.78;5068148;27;66945;-33
2022/09/04 03:51:49;;;;;;;11.77;2.70;;;;;;;31.91;67.79;100754.41;5077589;28;71049;-34
2022/09/04 03:54:31;;;;;;;6.60;2.30;;;;;;;31.71;67.07;100702.31;5060620;27;66626;-37
2022/09/04 03:57:25;;;;;;;4.25;2.05;;;;;;;31.98;66.49;100741.59;5075345;28;70315;-36
2022/09/04 04:00:18;;;;;;;4.40;2.05;;;;;;;32.09;66.79;100752.69;5076691;28;66648;-35
2022/09/04 04:03:11;;;;;;;4.82;2.08;;;;;;;31.73;66.61;100683.91;5058189;28;70504;-35
2022/09/04 04:05:58;;;;;;;5.00;2.00;;;;;;;32.12;66.73;100741.38;5076725;28;66689;-36
2022/09/04 04:09:00;;;;;;;8.05;2.05;;;;;;;32.11;66.47;100723.44;5080367;27;69845;-36
2022/09/04 04:12:24;;;;;;;3.92;1.88;;;;;;;31.66;66.82;100661.50;5074560;28;67955;-35
2022/09/04 04:15:20;;;;;;;5.93;1.98;;;;;;;32.19;66.23;100720.41;5053510;27;70630;-36
2022/09/04 04:18:12;;;;;;;3.50;2.15;;;;;;;32.21;66.45;100721.00;5075488;27;66150;-36
2022/09/04 04:21:06;;;;;;;6.75;1.88;;;;;;;32.15;66.30;100719.19;5071478;28;69875;-36
2022/09/04 04:23:48;;;;;;;3.55;1.70;;;;;;;31.77;65.88;100647.97;5073296;27;66368;-36
2022/09/04 04:26:48;;;;;;;7.65;2.65;;;;;;;32.16;66.69;100705.41;5069772;27;70917;-37
2022/09/04 04:29:50;;;;;;;7.20;2.85;;;;;;;32.20;66.47;100714.72;5069641;28;66549;-36
2022/09/04 04:32:36;;;;;;;10.70;4.72;;;;;;;32.25;66.38;100708.59;5076521;28;70607;-36
2022/09/04 04:35:49;;;;;;;7.47;5.10;;;;;;;32.13;66.92;100705.06;5081025;27;66116;-36
2022/09/04 04:38:25;;;;;;;6.65;5.05;;;;;;;32.27;66.31;100695.63;5068557;28;71171;-35
2022/09/04 04:41:15;;;;;;;7.55;4.22;;;;;;;32.22;66.59;100681.94;5071040;28;66851;-35
2022/09/04 04:44:09;;;;;;;4.15;3.55;;;;;;;32.31;66.26;100677.81;5074221;28;70953;-34
2022/09/04 04:46:50;;;;;;;3.63;3.33;;;;;;;32.33;66.17;100666.72;5076979;27;66978;-35
2022/09/04 04:49:58;;;;;;;4.80;2.92;;;;;;;32.25;66.59;100649.72;5081034;28;70772;-36
2022/09/04 04:52:55;;;;;;;5.07;3.53;;;;;;;32.33;66.20;100647.72;5077407;28;66540;-36
2022/09/04 04:55:39;;;;;;;2.72;2.13;;;;;;;32.28;65.60;100643.81;5066623;27;70038;-38
2022/09/04 04:58:48;;;;;;;4.68;2.63;;;;;;;32.24;65.96;100649.97;5074991;28;66799;-37
2022/09/04 05:01:38;;;;;;;4.10;2.67;;;;;;;32.23;66.16;100645.56;5074261;28;70511;-36
2022/09/04 05:04:24;;;;;;;3.80;2.70;;;;;;;32.24;65.72;100641.81;5077868;27;66142;-36
2022/09/04 05:07:19;;;;;;;3.05;2.70;;;;;;;32.27;65.92;100636.75;5054808;28;70350;-35
2022/09/04 05:10:22;;;;;;;2.50;2.30;;;;;;;32.21;66.29;100636.88;5078010;27;66661;-36
2022/09/04 05:13:24;;;;;;;3.95;2.58;;;;;;;32.27;66.71;100652.22;5058828;28;70511;-35
2022/09/04 05:16:33;;;;;;;7.83;2.83;;;;;;;32.28;66.77;100648.41;5074437;28;66939;-34
2022/09/04 05:19:38;;;;;;;5.05;2.13;;;;;;;31.62;66.92;100525.53;5078921;27;71054;-35
2022/09/04 05:22:38;;;;;;;2.33;2.13;;;;;;;32.21;66.35;100624.13;5077642;27;67104;-37
2022/09/04 05:25:23;;;;;;;3.13;2.10;;;;;;;32.05;66.38;100582.22;5076703;27;69900;-35
2022/09/04 05:28:17;;;;;;;3.15;2.33;;;;;;;32.51;65.84;100641.38;5092303;27;65746;-37
2022/09/04 05:31:18;;;;;;;4.35;2.95;;;;;;;32.53;65.56;100648.22;5076862;28;70867;-35
2022/09/04 05:33:51;;;;;;;9.07;2.83;;;;;;;32.52;65.87;100643.03;5053768;27;66910;-35
2022/09/04 05:36:47;;;;;;;3.20;2.33;;;;;;;32.49;64.81;100644.34;5072626;28;69702;-36
2022/09/04 05:39:33;;;;;;;30.00;3.80;;;;;;;32.38;63.38;100632.38;5076782;28;66064;-34
2022/09/04 05:42:44;;;;;;;4.72;2.55;;;;;;;32.18;61.95;100627.31;5072116;28;70697;-35
2022/09/04 05:45:31;;;;;;;3.30;2.47;;;;;;;32.35;62.33;100643.72;5076071;28;43436;-35
2022/09/04 05:48:18;;;;;;;4.60;2.42;;;;;;;32.28;60.13;100643.00;5077238;28;70564;-35
2022/09/04 05:50:59;;;;;;;7.57;2.53;;;;;;;32.28;60.19;100648.41;5071287;27;66638;-34
2022/09/04 05:53:59;;;;;;;3.92;2.50;;;;;;;32.13;59.17;100645.34;5073792;27;70162;-35
2022/09/04 05:57:04;;;;;;;3.40;1.83;;;;;;;32.08;58.13;100631.66;5045821;28;67097;-36
2022/09/04 06:00:00;;;;;;;2.88;2.35;;;;;;;32.09;57.43;100633.31;5033835;27;70359;-34
2022/09/04 06:03:16;;;;;;;3.00;1.58;;;;;;;31.98;56.47;100605.09;5077763;27;66962;-34
2022/09/04 06:06:13;;;;;;;2.75;1.70;;;;;;;31.91;56.28;100556.38;5074729;27;70758;-36
2022/09/04 06:09:19;;;;;;;7.63;1.35;;;;;;;32.02;55.02;100563.72;5076703;27;66071;-36
2022/09/04 06:12:21;;;;;;;3.00;1.40;;;;;;;31.95;55.91;100533.13;5076976;28;70759;-35
2022/09/04 06:14:57;;;;;;;3.15;1.48;;;;;;;32.05;56.29;100514.38;5075680;28;66288;-37
2022/09/04 06:17:47;;;;;;;4.32;1.23;;;;;;;32.00;55.57;100505.31;5073187;28;70124;-36
2022/09/04 06:20:52;;;;;;;7.50;1.25;;;;;;;31.27;55.29;100395.38;5075854;28;67142;-36
2022/09/04 06:23:43;;;;;;;3.25;1.48;;;;;;;32.09;55.94;100503.88;5076269;28;70222;-38
2022/09/04 06:26:35;;;;;;;1.48;0.90;;;;;;;31.94;54.22;100517.13;5073025;28;67021;-36
2022/09/04 06:29:27;;;;;;;2.10;1.02;;;;;;;31.76;53.84;100497.16;5047201;27;70042;-36
2022/09/04 06:32:13;;;;;;;4.97;1.10;;;;;;;32.08;54.03;100539.41;5074788;28;66442;-36
2022/09/04 06:35:09;;;;;;;1.73;1.02;;;;;;;31.98;52.48;100535.41;5074327;27;69966;-37
2022/09/04 06:37:53;;;;;;;1.25;1.10;;;;;;;32.01;52.79;100540.34;5075965;28;67100;-37
2022/09/04 06:40:41;;;;;;;1.55;1.00;;;;;;;32.01;52.26;100542.22;5077810;28;71659;-37
2022/09/04 06:43:55;;;;;;;2.55;0.98;;;;;;;31.93;52.05;100553.44;5076066;28;66379;-36
2022/09/04 06:46:39;;;;;;;0.73;0.70;;;;;;;31.97;51.85;100550.00;5062929;28;70716;-36
2022/09/04 06:49:44;;;;;;;1.33;0.73;;;;;;;31.92;50.97;100558.03;5076298;28;66267;-37
2022/09/04 06:52:38;;;;;;;1.67;0.80;;;;;;;31.95;51.70;100556.72;5076115;28;70753;-37
2022/09/04 06:55:36;;;;;;;1.30;0.88;;;;;;;32.05;51.87;100556.97;5075184;27;67060;-37
2022/09/04 06:58:41;;;;;;;1.27;0.80;;;;;;;32.01;50.80;100545.78;5046574;27;70774;-36
2022/09/04 07:01:45;;;;;;;1.92;0.65;;;;;;;31.92;51.33;100524.66;5078207;27;67198;-37
2022/09/04 07:04:26;;;;;;;3.72;0.50;;;;;;;32.01;50.30;100525.94;5066336;27;70362;-39
2022/09/04 07:07:17;;;;;;;3.33;0.70;;;;;;;31.91;50.29;100513.00;5069357;27;67002;-37
2022/09/04 07:09:59;;;;;;;1.42;0.82;;;;;;;31.95;49.50;100508.72;5077730;27;71257;-37
2022/09/04 07:13:24;;;;;;;5.07;1.02;;;;;;;31.79;49.65;100498.59;5075539;27;66095;-37
2022/09/04 07:16:31;;;;;;;1.67;0.85;;;;;;;31.78;50.12;100480.63;4994002;28;69779;-37
2022/09/04 07:19:24;;;;;;;2.97;0.82;;;;;;;31.78;49.53;100486.06;5063895;27;66446;-37
2022/09/04 07:21:57;;;;;;;;;;;;;;;31.59;49.09;100488.91;5071020;28;69935;-37
2022/09/04 07:24:48;;;;;;;3.38;0.70;;;;;;;31.79;48.86;100487.72;5075812;28;66103;-36
2022/09/04 07:27:57;;;;;;;2.15;1.20;;;;;;;31.73;49.01;100472.38;5077687;28;69869;-37
2022/09/04 07:30:36;;;;;;;1.52;0.75;;;;;;;31.79;49.10;100449.75;5076296;27;67347;-40
2022/09/04 07:33:32;;;;;;;2.75;0.80;;;;;;;31.74;49.12;100455.06;5083912;27;70097;-37
2022/09/04 07:36:25;;;;;;;1.73;1.15;;;;;;;31.72;48.44;100458.00;5078066;27;66821;-38
2022/09/04 07:39:15;;;;;;;2.08;0.80;;;;;;;31.74;48.66;100463.19;5074777;27;70533;-36
2022/09/04 07:42:15;;;;;;;1.25;0.77;;;;;;;31.65;50.59;100459.19;5075750;28;66786;-38
2022/09/04 07:45:06;;;;;;;2.72;1.20;;;;;;;31.75;49.79;100459.41;5053062;27;69322;-36
2022/09/04 07:47:45;;;;;;;1.17;0.75;;;;;;;31.29;49.03;100395.97;5078345;28;66420;-36
2022/09/04 07:50:43;;;;;;;2.35;1.10;;;;;;;31.73;50.13;100469.66;5079657;27;69780;-38
2022/09/04 07:53:40;;;;;;;6.10;1.33;;;;;;;31.24;49.14;100395.84;5076840;27;66975;-37
2022/09/04 07:56:34;;;;;;;2.80;1.40;;;;;;;31.73;49.04;100456.13;5077962;27;71186;-38
2022/09/04 07:59:31;;;;;;;4.55;0.77;;;;;;;31.71;49.42;100441.97;5079562;28;66913;-38
2022/09/04 08:02:22;;;;;;;7.35;1.23;;;;;;;31.69;49.23;100444.09;5078984;28;70273;-36
2022/09/04 08:05:00;;;;;;;7.75;1.45;;;;;;;31.78;49.46;100448.09;5079589;27;67074;-36
2022/09/04 08:07:33;;;;;;;5.78;0.85;;;;;;;31.79;49.12;100463.31;5081115;27;71253;-37
2022/09/04 08:10:11;;;;;;;;;;;;;;;31.58;49.58;100460.13;5077996;28;67229;-37
2022/09/04 08:12:46;;;;;;;9.48;2.00;;;;;;;31.79;49.52;100471.47;5075657;28;70207;-37
2022/09/04 08:15:44;;;;;;;11.75;1.50;;;;;;;31.39;48.86;100407.91;5077462;28;66412;-37
2022/09/04 08:18:43;;;;;;;4.25;1.48;;;;;;;31.67;48.40;100473.34;5077777;28;69916;-38
2022/09/04 08:21:18;;;;;;;12.70;1.38;;;;;;;31.82;48.36;100476.41;5078400;28;65945;-37
2022/09/04 08:24:06;;;;;;;15.98;1.88;;;;;;;31.78;48.33;100480.63;5073270;28;70800;-37
2022/09/04 08:27:15;;;;;;;17.08;1.90;;;;;;;31.76;48.27;100482.75;5073955;28;66969;-37
2022/09/04 08:29:47;;;;;;;3.42;1.23;;;;;;;31.79;48.35;100487.72;5075205;27;70784;-37
2022/09/04 08:32:50;;;;;;;8.00;1.20;;;;;;;31.67;47.82;100490.41;5077415;28;67285;-37
2022/09/04 08:35:41;;;;;;;11.77;1.50;;;;;;;31.69;47.63;100496.44;5075321;27;70203;-37
2022/09/04 08:38:38;;;;;;;8.40;1.17;;;;;;;31.22;47.86;100417.75;5075646;27;66844;-38
2022/09/04 08:41:25;;;;;;;3.45;1.40;;;;;;;31.74;48.17;100495.75;5073811;28;70196;-37
2022/09/04 08:44:19;;;;;;;5.18;1.48;;;;;;;31.27;47.47;100431.44;5076093;28;66792;-37
2022/09/04 08:47:36;;;;;;;3.80;2.03;;;;;;;31.55;47.64;100485.00;5079833;27;69636;-36
2022/09/04 08:50:39;;;;;;;2.38;1.50;;;;;;;31.71;46.89;100496.22;5057361;28;66750;-36
2022/09/04 08:53:17;;;;;;;3.65;1.42;;;;;;;31.73;46.93;100492.22;5078710;28;70838;-39
2022/09/04 08:55:59;;;;;;;5.57;1.30;;;;;;;31.75;47.01;100498.22;5078326;28;66117;-37
2022/09/04 08:59:12;;;;;;;11.27;2.85;;;;;;;31.66;46.61;100498.81;5071549;28;70840;-36
2022/09/04 09:02:07;;;;;;;5.15;1.50;;;;;;;31.74;47.88;100499.28;5073271;28;65772;-38
2022/09/04 09:05:09;;;;;;;8.05;2.38;;;;;;;31.75;49.78;100486.53;5069962;28;71639;-36
2022/09/04 09:08:05;;;;;;;12.25;3.40;;;;;;;32.04;52.53;100507.31;5074387;28;66251;-37
2022/09/04 09:10:50;;;;;;;12.00;3.20;;;;;;;32.03;53.94;100497.50;5075007;28;70013;-36
2022/09/04 09:13:41;;;;;;;3.63;3.13;;;;;;;32.24;53.66;100523.22;5078847;27;67008;-38
2022/09/04 09:16:22;;;;;;;6.43;3.08;;;;;;;32.29;54.16;100530.66;5074950;28;70829;-37
2022/09/04 09:18:55;;;;;;;3.22;2.63;;;;;;;32.33;54.14;100528.28;5075831;28;66973;-38
2022/09/04 09:22:05;;;;;;;10.20;2.90;;;;;;;32.40;54.40;100518.97;5074556;28;70276;-37
2022/09/04 09:24:52;;;;;;;10.38;3.88;;;;;;;32.37;54.58;100511.28;5031303;28;66216;-38
2022/09/04 09:28:02;;;;;;;10.55;3.70;;;;;;;32.39;54.64;100511.84;5074580;28;70762;-38
2022/09/04 09:30:54;;;;;;;11.98;3.75;;;;;;;32.42;54.69;100513.28;5074445;28;66156;-37
2022/09/04 09:33:48;;;;;;;14.27;3.03;;;;;;;32.45;54.74;100520.94;5078797;28;70502;-38
2022/09/04 09:36:45;;;;;;;14.63;3.88;;;;;;;32.52;54.76;100523.56;5079798;28;66794;-37
2022/09/04 09:39:51;;;;;;;35.15;7.47;;;;;;;32.51;54.59;100516.47;5066606;28;70213;-37
2022/09/04 09:42:50;;;;;;;36.85;6.50;;;;;;;32.58;54.78;100511.75;5073630;27;66962;-36
2022/09/04 09:45:55;;;;;;;25.35;5.72;;;;;;;32.18;55.75;100463.63;5073137;28;70151;-36
2022/09/04 09:48:27;;;;;;;19.20;5.63;;;;;;;32.66;55.25;100514.06;5071818;28;67695;-35
2022/09/04 09:51:32;;;;;;;17.13;3.85;;;;;;;32.65;56.56;100502.41;5079816;28;70842;-36
2022/09/04 09:54:36;;;;;;;10.23;4.88;;;;;;;32.64;60.56;100500.72;5077608;27;66751;-35
2022/09/04 09:57:29;;;;;;;;;;;;;;;32.47;61.51;100503.38;5076698;28;70188;-35
2022/09/04 10:00:13;;;;;;;16.65;4.72;;;;;;;32.59;62.03;100503.34;5077004;28;66509;-35
2022/09/04 10:03:03;;;;;;;7.78;4.00;;;;;;;32.57;62.81;100502.78;5073013;28;70867;-36
2022/09/04 10:05:50;;;;;;;13.30;4.20;;;;;;;32.57;62.75;100516.34;5075945;28;66291;-35
2022/09/04 10:08:43;;;;;;;9.57;4.47;;;;;;;32.51;62.92;100517.28;5075153;28;70738;-36
2022/09/04 10:11:37;;;;;;;6.03;3.80;;;;;;;32.51;63.01;100516.47;5076116;28;66331;-34
2022/09/04 10:14:39;;;;;;;9.27;3.25;;;;;;;32.38;63.67;100533.84;5077111;28;70349;-35
2022/09/04 10:17:32;;;;;;;5.13;3.97;;;;;;;32.38;63.62;100540.09;5077530;27;67291;-36
2022/09/04 10:20:17;;;;;;;9.45;4.15;;;;;;;32.42;63.67;100557.53;5076325;28;71178;-35
2022/09/04 10:22:55;;;;;;;6.13;3.85;;;;;;;32.43;63.90;100580.06;5074661;28;66652;-35
2022/09/04 10:25:42;;;;;;;6.82;3.97;;;;;;;32.41;63.97;100599.31;5073175;28;70240;-36
2022/09/04 10:28:39;;;;;;;9.38;3.95;;;;;;;32.32;64.60;100627.91;5071004;28;64982;-37
2022/09/04 10:31:30;;;;;;;7.00;3.80;;;;;;;31.63;64.60;100524.50;5072502;28;70743;-35
2022/09/04 10:34:39;;;;;;;15.15;8.10;;;;;;;32.28;65.69;100645.69;5074722;28;66284;-35
2022/09/04 10:37:39;;;;;;;19.50;9.32;;;;;;;32.20;66.66;100641.44;5070671;28;70678;-36
2022/09/04 10:40:47;;;;;;;22.80;10.52;;;;;;;31.64;67.61;100549.72;5067776;28;66937;-35
2022/09/04 10:43:42;;;;;;;18.80;10.55;;;;;;;32.27;68.11;100641.34;5066693;28;70820;-34
2022/09/04 10:46:34;;;;;;;19.95;10.18;;;;;;;32.21;68.62;100653.16;5076771;27;67018;-35
2022/09/04 10:49:18;;;;;;;19.55;9.70;;;;;;;32.19;69.44;100650.66;5075318;27;69842;-36
2022/09/04 10:52:20;;;;;;;13.70;9.63;;;;;;;32.14;69.79;100649.72;5076989;27;67049;-36
2022/09/04 10:55:06;;;;;;;12.93;8.43;;;;;;;32.17;69.83;100652.78;5080843;28;71193;-36
2022/09/04 10:58:03;;;;;;;12.50;7.95;;;;;;;32.05;70.40;100650.06;5076156;28;66364;-35
2022/09/04 11:01:04;;;;;;;9.48;7.72;;;;;;;31.93;70.68;100646.50;5081542;28;71091;-35
2022/09/04 11:03:57;;;;;;;9.85;7.22;;;;;;;32.05;70.49;100660.91;5080996;28;67110;-36
2022/09/04 11:06:39;;;;;;;8.75;5.97;;;;;;;31.74;70.58;100625.91;5077074;28;70549;-36
2022/09/04 11:09:40;;;;;;;5.80;5.30;;;;;;;31.99;70.27;100680.84;5096672;27;66042;-37
2022/09/04 11:12:39;;;;;;;7.85;5.57;;;;;;;31.92;70.28;100688.25;5078819;28;70793;-36
2022/09/04 11:15:29;;;;;;;5.90;5.28;;;;;;;31.99;70.60;100693.59;5051950;28;66287;-36
2022/09/04 11:18:32;;;;;;;8.50;5.35;;;;;;;31.94;70.33;100707.00;5075550;28;70707;-35
2022/09/04 11:21:43;;;;;;;6.03;5.35;;;;;;;31.89;70.29;100712.28;5077399;28;66756;-35
2022/09/04 11:24:40;;;;;;;5.93;4.85;;;;;;;31.86;70.32;100704.59;5076818;28;70905;-36
2022/09/04 11:27:28;;;;;;;7.53;6.20;;;;;;;31.88;70.50;100714.16;5073390;28;66234;-34
2022/09/04 11:30:16;;;;;;;7.90;7.40;;;;;;;31.39;70.95;100645.59;5069676;28;70614;-35
2022/09/04 11:32:52;;;;;;;8.70;7.30;;;;;;;31.84;70.56;100718.38;5079650;27;65662;-35
2022/09/04 11:35:30;;;;;;;7.97;7.25;;;;;;;31.83;70.56;100714.03;5076047;27;70943;-36
2022/09/04 11:38:16;;;;;;;8.32;7.60;;;;;;;31.79;70.48;100715.56;5078788;27;66809;-36
2022/09/04 11:41:07;;;;;;;10.25;7.45;;;;;;;31.78;70.27;100708.44;5077256;27;70900;-36
2022/09/04 11:44:26;;;;;;;9.65;7.28;;;;;;;31.83;70.32;100712.13;5075462;28;67047;-36
2022/09/04 11:47:14;;;;;;;8.05;7.40;;;;;;;31.80;70.47;100717.19;5034671;28;69992;-36
2022/09/04 11:49:52;;;;;;;7.65;7.15;;;;;;;31.84;70.50;100712.94;5034305;28;65037;-38
2022/09/04 11:52:49;;;;;;;7.55;7.10;;;;;;;31.89;70.30;100715.81;5062241;27;71090;-36
2022/09/04 11:55:54;;;;;;;9.02;7.38;;;;;;;31.66;69.99;100677.75;5077907;27;66096;-37
2022/09/04 11:58:35;;;;;;;8.07;6.97;;;;;;;31.59;69.62;100659.72;5078409;27;69886;-37
2022/09/04 12:01:42;;;;;;;11.80;7.47;;;;;;;31.87;69.81;100723.34;5077579;28;67266;-37
2022/09/04 12:04:32;;;;;;;7.95;7.40;;;;;;;31.93;69.83;100725.19;5073605;27;71127;-36
2022/09/04 12:07:12;;;;;;;8.43;7.68;;;;;;;31.93;69.59;100736.03;5076828;28;67077;-37
2022/09/04 12:10:09;;;;;;;7.30;6.55;;;;;;;31.89;69.82;100737.50;5074293;28;70286;-37
2022/09/04 12:12:49;;;;;;;6.55;6.05;;;;;;;31.92;69.66;100750.63;5074110;28;66554;-36
2022/09/04 12:15:31;;;;;;;7.53;6.80;;;;;;;31.90;69.85;100750.03;5077716;27;70926;-36
2022/09/04 12:18:21;;;;;;;7.05;6.45;;;;;;;31.89;69.68;100748.34;5079136;27;67112;-36
2022/09/04 12:21:11;;;;;;;7.07;6.50;;;;;;;31.85;70.02;100752.59;5075794;27;70175;-36
2022/09/04 12:23:58;;;;;;;6.70;6.13;;;;;;;31.51;70.10;100703.41;5073860;27;67059;-36
2022/09/04 12:26:52;;;;;;;6.18;5.68;;;;;;;31.86;70.70;100775.94;5075763;27;70967;-36
2022/09/04 12:30:06;;;;;;;5.80;5.35;;;;;;;31.82;70.48;100780.19;5078828;27;66800;-36
2022/09/04 12:32:44;;;;;;;5.60;5.20;;;;;;;31.89;70.40;100801.78;5075338;28;70530;-36
2022/09/04 12:35:34;;;;;;;6.80;6.20;;;;;;;31.88;70.62;100794.72;5072612;28;67002;-35
2022/09/04 12:38:06;;;;;;;5.88;5.47;;;;;;;31.89;70.92;100801.78;5066674;28;70862;-35
2022/09/04 12:40:50;;;;;;;;;;;;;;;31.72;71.55;100817.84;5069492;27;66979;-46
2022/09/04 12:43:49;;;;;;;6.18;5.00;;;;;;;31.89;71.09;100831.63;5076482;27;70270;-37
2022/09/04 12:46:34;;;;;;;5.10;4.60;;;;;;;31.90;71.31;100825.97;5077239;27;66692;-37
2022/09/04 12:49:28;;;;;;;5.10;4.65;;;;;;;31.78;71.65;100823.19;5076212;27;70117;-36
2022/09/04 12:52:05;;;;;;;7.88;4.65;;;;;;;31.90;72.14;100841.41;5078845;28;66331;-36
2022/09/04 12:54:52;;;;;;;4.78;4.35;;;;;;;31.89;72.15;100859.56;5078168;28;71173;-35
2022/09/04 12:57:45;;;;;;;4.85;4.45;;;;;;;31.87;72.13;100863.56;5075351;28;66152;-36
2022/09/04 13:00:18;;;;;;;4.40;4.00;;;;;;;31.81;72.50;100854.44;5069575;27;70073;-36
2022/09/04 13:03:21;;;;;;;4.78;4.07;;;;;;;31.80;72.58;100869.09;5070548;28;66472;-35
2022/09/04 13:06:12;;;;;;;5.10;3.50;;;;;;;31.79;72.40;100883.72;5072852;28;70760;-35
2022/09/04 13:08:47;;;;;;;4.82;4.22;;;;;;;31.86;72.25;100889.88;5073111;28;66652;-37
2022/09/04 13:11:39;;;;;;;4.72;3.92;;;;;;;31.41;72.82;100844.06;5072223;28;70710;-35
2022/09/04 13:14:46;;;;;;;4.05;3.63;;;;;;;31.33;72.84;100841.63;5074653;27;66672;-36
2022/09/04 13:17:44;;;;;;;3.97;3.65;;;;;;;31.80;73.01;100916.00;5071231;28;70904;-35
2022/09/04 13:20:29;;;;;;;5.30;3.22;;;;;;;31.85;72.98;100926.19;5073773;28;67217;-34
2022/09/04 13:23:22;;;;;;;5.18;2.83;;;;;;;31.86;72.94;100933.28;5075757;27;70118;-33